sensor_id;sensor_type;location;lat;lon;timestamp;P1;durP1;ratioP1;P2;durP2;ratioP2
7817;SDS011;3954;52.624;9.212;2023-03-23T00:00:08;8.50;;;5.03;;
7817;SDS011;3954;52.624;9.212;2023-03-23T00:02:34;9.53;;;5.23;;
7817;SDS011;3954;52.624;9.212;2023-03-23T00:05:03;8.70;;;5.30;;
7817;SDS011;3954;52.624;9.212;2023-03-23T00:07:29;6.13;;;5.40;;
7817;SDS011;3954;52.624;9.212;2023-03-23T00:09:55;7.93;;;5.73;;
7817;SDS011;3954;52.624;9.212;2023-03-23T00:12:23;8.60;;;5.30;;
7817;SDS011;3954;52.624;9.212;2023-03-23T00:14:58;7.90;;;5.80;;
7817;SDS011;3954;52.624;9.212;2023-03-23T00:17:25;7.47;;;5.50;;
7817;SDS011;3954;52.624;9.212;2023-03-23T00:19:51;9.27;;;6.00;;
7817;SDS011;3954;52.624;9.212;2023-03-23T00:22:18;5.93;;;5.33;;
7817;SDS011;3954;52.624;9.212;2023-03-23T00:24:45;6.00;;;5.40;;
7817;SDS011;3954;52.624;9.212;2023-03-23T00:27:11;9.90;;;6.30;;
7817;SDS011;3954;52.624;9.212;2023-03-23T00:29:40;8.10;;;5.43;;
7817;SDS011;3954;52.624;9.212;2023-03-23T00:32:07;9.17;;;6.07;;
7817;SDS011;3954;52.624;9.212;2023-03-23T00:34:37;7.57;;;5.50;;
7817;SDS011;3954;52.624;9.212;2023-03-23T00:37:05;9.43;;;5.80;;
7817;SDS011;3954;52.624;9.212;2023-03-23T00:39:32;7.57;;;6.47;;
7817;SDS011;3954;52.624;9.212;2023-03-23T00:41:58;7.13;;;6.20;;
7817;SDS011;3954;52.624;9.212;2023-03-23T00:44:27;6.90;;;6.20;;
7817;SDS011;3954;52.624;9.212;2023-03-23T00:46:54;7.37;;;6.27;;
7817;SDS011;3954;52.624;9.212;2023-03-23T00:49:21;10.13;;;6.80;;
7817;SDS011;3954;52.624;9.212;2023-03-23T00:51:51;11.30;;;6.57;;
7817;SDS011;3954;52.624;9.212;2023-03-23T00:54:17;8.07;;;5.93;;
7817;SDS011;3954;52.624;9.212;2023-03-23T00:56:43;6.83;;;6.00;;
7817;SDS011;3954;52.624;9.212;2023-03-23T00:59:09;8.70;;;6.07;;
7817;SDS011;3954;52.624;9.212;2023-03-23T01:01:35;7.07;;;5.80;;
7817;SDS011;3954;52.624;9.212;2023-03-23T01:04:03;8.00;;;5.53;;
7817;SDS011;3954;52.624;9.212;2023-03-23T01:06:30;6.57;;;5.87;;
7817;SDS011;3954;52.624;9.212;2023-03-23T01:08:56;9.90;;;6.27;;
7817;SDS011;3954;52.624;9.212;2023-03-23T01:11:22;6.87;;;6.27;;
7817;SDS011;3954;52.624;9.212;2023-03-23T01:13:49;7.43;;;6.03;;
7817;SDS011;3954;52.624;9.212;2023-03-23T01:16:15;7.40;;;5.97;;
7817;SDS011;3954;52.624;9.212;2023-03-23T01:18:42;8.80;;;6.40;;
7817;SDS011;3954;52.624;9.212;2023-03-23T01:21:09;9.53;;;6.53;;
7817;SDS011;3954;52.624;9.212;2023-03-23T01:23:36;7.73;;;6.07;;
7817;SDS011;3954;52.624;9.212;2023-03-23T01:26:03;8.67;;;6.47;;
7817;SDS011;3954;52.624;9.212;2023-03-23T01:28:29;8.23;;;6.73;;
7817;SDS011;3954;52.624;9.212;2023-03-23T01:30:58;10.93;;;6.53;;
7817;SDS011;3954;52.624;9.212;2023-03-23T01:33:24;9.43;;;6.93;;
7817;SDS011;3954;52.624;9.212;2023-03-23T01:35:50;9.97;;;7.00;;
7817;SDS011;3954;52.624;9.212;2023-03-23T01:38:18;9.10;;;6.33;;
7817;SDS011;3954;52.624;9.212;2023-03-23T01:40:44;8.37;;;7.03;;
7817;SDS011;3954;52.624;9.212;2023-03-23T01:43:10;7.33;;;6.63;;
7817;SDS011;3954;52.624;9.212;2023-03-23T01:45:38;9.00;;;6.80;;
7817;SDS011;3954;52.624;9.212;2023-03-23T01:48:07;9.67;;;6.67;;
7817;SDS011;3954;52.624;9.212;2023-03-23T01:50:36;8.20;;;6.00;;
7817;SDS011;3954;52.624;9.212;2023-03-23T01:53:04;8.27;;;6.60;;
7817;SDS011;3954;52.624;9.212;2023-03-23T01:55:34;9.87;;;6.47;;
7817;SDS011;3954;52.624;9.212;2023-03-23T01:58:01;9.80;;;7.20;;
7817;SDS011;3954;52.624;9.212;2023-03-23T02:00:28;8.80;;;6.67;;
7817;SDS011;3954;52.624;9.212;2023-03-23T02:02:55;10.53;;;6.27;;
7817;SDS011;3954;52.624;9.212;2023-03-23T02:05:23;7.03;;;6.33;;
7817;SDS011;3954;52.624;9.212;2023-03-23T02:07:50;7.87;;;6.37;;
7817;SDS011;3954;52.624;9.212;2023-03-23T02:10:17;7.40;;;6.40;;
7817;SDS011;3954;52.624;9.212;2023-03-23T02:12:44;7.50;;;6.63;;
7817;SDS011;3954;52.624;9.212;2023-03-23T02:15:10;8.13;;;6.57;;
7817;SDS011;3954;52.624;9.212;2023-03-23T02:17:37;9.90;;;7.50;;
7817;SDS011;3954;52.624;9.212;2023-03-23T02:20:13;7.67;;;6.83;;
7817;SDS011;3954;52.624;9.212;2023-03-23T02:22:46;6.90;;;6.20;;
7817;SDS011;3954;52.624;9.212;2023-03-23T02:25:19;7.47;;;6.77;;
7817;SDS011;3954;52.624;9.212;2023-03-23T02:30:45;6.70;;;5.90;;
7817;SDS011;3954;52.624;9.212;2023-03-23T02:33:33;9.23;;;6.93;;
7817;SDS011;3954;52.624;9.212;2023-03-23T02:36:02;9.83;;;6.47;;
7817;SDS011;3954;52.624;9.212;2023-03-23T02:38:30;9.07;;;6.20;;
7817;SDS011;3954;52.624;9.212;2023-03-23T02:40:58;6.33;;;5.67;;
7817;SDS011;3954;52.624;9.212;2023-03-23T02:43:27;8.87;;;6.13;;
7817;SDS011;3954;52.624;9.212;2023-03-23T02:45:54;6.00;;;5.40;;
7817;SDS011;3954;52.624;9.212;2023-03-23T02:48:22;6.40;;;5.50;;
7817;SDS011;3954;52.624;9.212;2023-03-23T02:50:51;8.30;;;5.50;;
7817;SDS011;3954;52.624;9.212;2023-03-23T02:53:19;6.60;;;5.47;;
7817;SDS011;3954;52.624;9.212;2023-03-23T02:55:46;6.47;;;5.30;;
7817;SDS011;3954;52.624;9.212;2023-03-23T02:58:13;5.90;;;4.90;;
7817;SDS011;3954;52.624;9.212;2023-03-23T03:00:40;7.13;;;5.37;;
7817;SDS011;3954;52.624;9.212;2023-03-23T03:03:08;4.97;;;4.57;;
7817;SDS011;3954;52.624;9.212;2023-03-23T03:05:36;7.13;;;5.10;;
7817;SDS011;3954;52.624;9.212;2023-03-23T03:08:09;7.23;;;4.30;;
7817;SDS011;3954;52.624;9.212;2023-03-23T03:10:44;7.73;;;4.97;;
7817;SDS011;3954;52.624;9.212;2023-03-23T03:13:14;5.60;;;4.80;;
7817;SDS011;3954;52.624;9.212;2023-03-23T03:15:45;5.97;;;4.93;;
7817;SDS011;3954;52.624;9.212;2023-03-23T03:18:16;6.60;;;4.63;;
7817;SDS011;3954;52.624;9.212;2023-03-23T03:20:45;6.27;;;5.33;;
7817;SDS011;3954;52.624;9.212;2023-03-23T03:23:14;6.53;;;4.60;;
7817;SDS011;3954;52.624;9.212;2023-03-23T03:25:40;6.27;;;4.80;;
7817;SDS011;3954;52.624;9.212;2023-03-23T03:28:12;5.13;;;4.40;;
7817;SDS011;3954;52.624;9.212;2023-03-23T03:30:38;6.30;;;4.43;;
7817;SDS011;3954;52.624;9.212;2023-03-23T03:33:09;6.13;;;4.20;;
7817;SDS011;3954;52.624;9.212;2023-03-23T03:35:36;5.77;;;4.20;;
7817;SDS011;3954;52.624;9.212;2023-03-23T03:38:06;5.17;;;4.30;;
7817;SDS011;3954;52.624;9.212;2023-03-23T03:40:34;6.20;;;4.40;;
7817;SDS011;3954;52.624;9.212;2023-03-23T03:43:01;4.77;;;4.00;;
7817;SDS011;3954;52.624;9.212;2023-03-23T03:45:27;7.47;;;4.13;;
7817;SDS011;3954;52.624;9.212;2023-03-23T03:47:53;3.90;;;3.50;;
7817;SDS011;3954;52.624;9.212;2023-03-23T03:50:19;4.47;;;3.60;;
7817;SDS011;3954;52.624;9.212;2023-03-23T03:52:45;7.03;;;3.90;;
7817;SDS011;3954;52.624;9.212;2023-03-23T03:55:12;5.93;;;3.67;;
7817;SDS011;3954;52.624;9.212;2023-03-23T03:57:39;7.17;;;4.03;;
7817;SDS011;3954;52.624;9.212;2023-03-23T04:00:07;5.80;;;3.87;;
7817;SDS011;3954;52.624;9.212;2023-03-23T04:02:40;3.73;;;3.43;;
7817;SDS011;3954;52.624;9.212;2023-03-23T04:05:07;6.90;;;3.60;;
7817;SDS011;3954;52.624;9.212;2023-03-23T04:07:34;6.23;;;3.20;;
7817;SDS011;3954;52.624;9.212;2023-03-23T04:10:03;5.63;;;2.97;;
7817;SDS011;3954;52.624;9.212;2023-03-23T04:12:30;6.03;;;3.13;;
7817;SDS011;3954;52.624;9.212;2023-03-23T04:14:57;3.50;;;2.57;;
7817;SDS011;3954;52.624;9.212;2023-03-23T04:17:23;2.87;;;2.57;;
7817;SDS011;3954;52.624;9.212;2023-03-23T04:19:52;3.70;;;2.60;;
7817;SDS011;3954;52.624;9.212;2023-03-23T04:22:21;3.63;;;2.70;;
7817;SDS011;3954;52.624;9.212;2023-03-23T04:24:54;2.27;;;1.83;;
7817;SDS011;3954;52.624;9.212;2023-03-23T04:27:23;3.50;;;2.20;;
7817;SDS011;3954;52.624;9.212;2023-03-23T04:29:49;3.80;;;2.33;;
7817;SDS011;3954;52.624;9.212;2023-03-23T04:32:17;2.70;;;2.17;;
7817;SDS011;3954;52.624;9.212;2023-03-23T04:34:43;4.40;;;2.33;;
7817;SDS011;3954;52.624;9.212;2023-03-23T04:37:09;3.57;;;2.20;;
7817;SDS011;3954;52.624;9.212;2023-03-23T04:39:35;3.67;;;2.00;;
7817;SDS011;3954;52.624;9.212;2023-03-23T04:42:01;2.80;;;2.13;;
7817;SDS011;3954;52.624;9.212;2023-03-23T04:44:27;2.50;;;2.10;;
7817;SDS011;3954;52.624;9.212;2023-03-23T04:46:53;2.83;;;2.00;;
7817;SDS011;3954;52.624;9.212;2023-03-23T04:49:20;2.83;;;2.00;;
7817;SDS011;3954;52.624;9.212;2023-03-23T04:51:47;3.23;;;2.17;;
7817;SDS011;3954;52.624;9.212;2023-03-23T04:54:13;4.40;;;2.03;;
7817;SDS011;3954;52.624;9.212;2023-03-23T04:56:39;4.10;;;2.00;;
7817;SDS011;3954;52.624;9.212;2023-03-23T04:59:06;4.80;;;2.20;;
7817;SDS011;3954;52.624;9.212;2023-03-23T05:01:32;2.73;;;1.80;;
7817;SDS011;3954;52.624;9.212;2023-03-23T05:03:59;2.77;;;2.23;;
7817;SDS011;3954;52.624;9.212;2023-03-23T05:06:26;2.63;;;1.90;;
7817;SDS011;3954;52.624;9.212;2023-03-23T05:08:52;1.83;;;1.70;;
7817;SDS011;3954;52.624;9.212;2023-03-23T05:11:18;2.37;;;1.90;;
7817;SDS011;3954;52.624;9.212;2023-03-23T05:13:44;2.57;;;1.80;;
7817;SDS011;3954;52.624;9.212;2023-03-23T05:16:10;4.40;;;2.00;;
7817;SDS011;3954;52.624;9.212;2023-03-23T05:18:36;2.93;;;2.03;;
7817;SDS011;3954;52.624;9.212;2023-03-23T05:21:03;3.10;;;2.07;;
7817;SDS011;3954;52.624;9.212;2023-03-23T05:23:30;2.30;;;1.90;;
7817;SDS011;3954;52.624;9.212;2023-03-23T05:25:58;4.40;;;2.07;;
7817;SDS011;3954;52.624;9.212;2023-03-23T05:28:27;2.07;;;1.90;;
7817;SDS011;3954;52.624;9.212;2023-03-23T05:30:55;2.83;;;1.93;;
7817;SDS011;3954;52.624;9.212;2023-03-23T05:33:21;4.50;;;2.27;;
7817;SDS011;3954;52.624;9.212;2023-03-23T05:35:47;2.13;;;1.97;;
7817;SDS011;3954;52.624;9.212;2023-03-23T05:38:13;2.60;;;1.80;;
7817;SDS011;3954;52.624;9.212;2023-03-23T05:40:41;3.53;;;1.90;;
7817;SDS011;3954;52.624;9.212;2023-03-23T05:43:07;5.70;;;2.30;;
7817;SDS011;3954;52.624;9.212;2023-03-23T05:45:33;2.10;;;1.90;;
7817;SDS011;3954;52.624;9.212;2023-03-23T05:48:00;3.33;;;1.97;;
7817;SDS011;3954;52.624;9.212;2023-03-23T05:50:26;2.70;;;2.00;;
7817;SDS011;3954;52.624;9.212;2023-03-23T05:52:54;3.80;;;2.10;;
7817;SDS011;3954;52.624;9.212;2023-03-23T05:55:20;3.07;;;2.00;;
7817;SDS011;3954;52.624;9.212;2023-03-23T05:57:47;2.63;;;2.10;;
7817;SDS011;3954;52.624;9.212;2023-03-23T06:00:13;3.47;;;1.90;;
7817;SDS011;3954;52.624;9.212;2023-03-23T06:02:41;3.50;;;2.00;;
7817;SDS011;3954;52.624;9.212;2023-03-23T06:05:08;4.17;;;2.43;;
7817;SDS011;3954;52.624;9.212;2023-03-23T06:07:35;2.10;;;1.90;;
7817;SDS011;3954;52.624;9.212;2023-03-23T06:10:02;2.50;;;1.70;;
7817;SDS011;3954;52.624;9.212;2023-03-23T06:12:29;2.47;;;2.13;;
7817;SDS011;3954;52.624;9.212;2023-03-23T06:14:57;2.43;;;1.97;;
7817;SDS011;3954;52.624;9.212;2023-03-23T06:17:24;3.27;;;1.73;;
7817;SDS011;3954;52.624;9.212;2023-03-23T06:19:50;3.57;;;1.97;;
7817;SDS011;3954;52.624;9.212;2023-03-23T06:22:16;2.47;;;2.00;;
7817;SDS011;3954;52.624;9.212;2023-03-23T06:24:42;2.00;;;1.83;;
7817;SDS011;3954;52.624;9.212;2023-03-23T06:27:09;3.00;;;1.97;;
7817;SDS011;3954;52.624;9.212;2023-03-23T06:29:35;2.80;;;1.80;;
7817;SDS011;3954;52.624;9.212;2023-03-23T06:32:03;2.20;;;2.00;;
7817;SDS011;3954;52.624;9.212;2023-03-23T06:34:30;3.80;;;1.97;;
7817;SDS011;3954;52.624;9.212;2023-03-23T06:36:56;2.00;;;1.70;;
7817;SDS011;3954;52.624;9.212;2023-03-23T06:39:22;2.00;;;1.80;;
7817;SDS011;3954;52.624;9.212;2023-03-23T06:41:48;3.03;;;2.10;;
7817;SDS011;3954;52.624;9.212;2023-03-23T06:44:14;2.83;;;1.70;;
7817;SDS011;3954;52.624;9.212;2023-03-23T06:46:40;2.80;;;1.93;;
7817;SDS011;3954;52.624;9.212;2023-03-23T06:49:08;2.43;;;1.90;;
7817;SDS011;3954;52.624;9.212;2023-03-23T06:51:34;2.40;;;2.20;;
7817;SDS011;3954;52.624;9.212;2023-03-23T06:54:01;3.20;;;1.97;;
7817;SDS011;3954;52.624;9.212;2023-03-23T06:56:27;2.30;;;2.10;;
7817;SDS011;3954;52.624;9.212;2023-03-23T06:58:54;2.30;;;2.10;;
7817;SDS011;3954;52.624;9.212;2023-03-23T07:01:21;3.30;;;2.27;;
7817;SDS011;3954;52.624;9.212;2023-03-23T07:03:47;3.63;;;2.30;;
7817;SDS011;3954;52.624;9.212;2023-03-23T07:06:15;2.40;;;2.20;;
7817;SDS011;3954;52.624;9.212;2023-03-23T07:08:41;2.23;;;2.00;;
7817;SDS011;3954;52.624;9.212;2023-03-23T07:11:07;3.27;;;2.30;;
7817;SDS011;3954;52.624;9.212;2023-03-23T07:13:35;2.67;;;2.07;;
7817;SDS011;3954;52.624;9.212;2023-03-23T07:16:04;2.80;;;2.17;;
7817;SDS011;3954;52.624;9.212;2023-03-23T07:18:31;3.03;;;2.40;;
7817;SDS011;3954;52.624;9.212;2023-03-23T07:20:57;2.97;;;2.30;;
7817;SDS011;3954;52.624;9.212;2023-03-23T07:23:24;3.07;;;2.70;;
7817;SDS011;3954;52.624;9.212;2023-03-23T07:25:50;3.40;;;2.57;;
7817;SDS011;3954;52.624;9.212;2023-03-23T07:28:17;2.53;;;2.33;;
7817;SDS011;3954;52.624;9.212;2023-03-23T07:30:43;3.17;;;2.50;;
7817;SDS011;3954;52.624;9.212;2023-03-23T07:33:09;4.33;;;2.70;;
7817;SDS011;3954;52.624;9.212;2023-03-23T07:35:36;2.50;;;2.00;;
7817;SDS011;3954;52.624;9.212;2023-03-23T07:38:02;4.60;;;2.20;;
7817;SDS011;3954;52.624;9.212;2023-03-23T07:40:30;3.43;;;2.20;;
7817;SDS011;3954;52.624;9.212;2023-03-23T07:42:58;4.57;;;2.40;;
7817;SDS011;3954;52.624;9.212;2023-03-23T07:45:25;4.13;;;2.30;;
7817;SDS011;3954;52.624;9.212;2023-03-23T07:47:51;3.20;;;2.33;;
7817;SDS011;3954;52.624;9.212;2023-03-23T07:50:18;3.60;;;2.57;;
7817;SDS011;3954;52.624;9.212;2023-03-23T07:52:47;2.80;;;2.33;;
7817;SDS011;3954;52.624;9.212;2023-03-23T07:55:13;2.53;;;2.30;;
7817;SDS011;3954;52.624;9.212;2023-03-23T07:57:43;3.70;;;2.47;;
7817;SDS011;3954;52.624;9.212;2023-03-23T08:00:10;3.30;;;2.60;;
7817;SDS011;3954;52.624;9.212;2023-03-23T08:02:44;3.03;;;2.23;;
7817;SDS011;3954;52.624;9.212;2023-03-23T08:05:10;2.83;;;2.40;;
7817;SDS011;3954;52.624;9.212;2023-03-23T08:07:38;4.97;;;2.67;;
7817;SDS011;3954;52.624;9.212;2023-03-23T08:10:05;6.20;;;2.60;;
7817;SDS011;3954;52.624;9.212;2023-03-23T08:12:35;3.30;;;2.30;;
7817;SDS011;3954;52.624;9.212;2023-03-23T08:15:03;3.93;;;2.40;;
7817;SDS011;3954;52.624;9.212;2023-03-23T08:17:29;4.43;;;2.67;;
7817;SDS011;3954;52.624;9.212;2023-03-23T08:19:56;6.53;;;2.83;;
7817;SDS011;3954;52.624;9.212;2023-03-23T08:22:23;4.27;;;2.60;;
7817;SDS011;3954;52.624;9.212;2023-03-23T08:24:49;3.93;;;2.57;;
7817;SDS011;3954;52.624;9.212;2023-03-23T08:27:15;3.33;;;2.60;;
7817;SDS011;3954;52.624;9.212;2023-03-23T08:29:43;3.17;;;2.23;;
7817;SDS011;3954;52.624;9.212;2023-03-23T08:32:10;4.50;;;2.70;;
7817;SDS011;3954;52.624;9.212;2023-03-23T08:34:37;5.20;;;2.63;;
7817;SDS011;3954;52.624;9.212;2023-03-23T08:37:03;4.67;;;2.87;;
7817;SDS011;3954;52.624;9.212;2023-03-23T08:39:31;5.43;;;2.63;;
7817;SDS011;3954;52.624;9.212;2023-03-23T08:41:58;5.97;;;2.37;;
7817;SDS011;3954;52.624;9.212;2023-03-23T08:44:25;4.43;;;2.47;;
7817;SDS011;3954;52.624;9.212;2023-03-23T08:46:51;6.67;;;2.57;;
7817;SDS011;3954;52.624;9.212;2023-03-23T08:49:23;5.70;;;2.60;;
7817;SDS011;3954;52.624;9.212;2023-03-23T08:51:49;4.63;;;2.40;;
7817;SDS011;3954;52.624;9.212;2023-03-23T08:54:15;4.87;;;2.53;;
7817;SDS011;3954;52.624;9.212;2023-03-23T08:56:42;4.33;;;2.20;;
7817;SDS011;3954;52.624;9.212;2023-03-23T08:59:08;6.10;;;3.10;;
7817;SDS011;3954;52.624;9.212;2023-03-23T09:01:35;2.70;;;2.47;;
7817;SDS011;3954;52.624;9.212;2023-03-23T09:04:01;3.73;;;2.27;;
7817;SDS011;3954;52.624;9.212;2023-03-23T09:06:28;4.13;;;2.40;;
7817;SDS011;3954;52.624;9.212;2023-03-23T09:08:54;5.60;;;2.40;;
7817;SDS011;3954;52.624;9.212;2023-03-23T09:11:21;3.97;;;2.63;;
7817;SDS011;3954;52.624;9.212;2023-03-23T09:13:47;4.70;;;2.60;;
7817;SDS011;3954;52.624;9.212;2023-03-23T09:16:13;3.23;;;2.70;;
7817;SDS011;3954;52.624;9.212;2023-03-23T09:18:39;4.80;;;2.70;;
7817;SDS011;3954;52.624;9.212;2023-03-23T09:21:05;5.03;;;3.20;;
7817;SDS011;3954;52.624;9.212;2023-03-23T09:23:33;3.87;;;3.47;;
7817;SDS011;3954;52.624;9.212;2023-03-23T09:26:02;4.77;;;3.00;;
7817;SDS011;3954;52.624;9.212;2023-03-23T09:28:28;5.80;;;3.17;;
7817;SDS011;3954;52.624;9.212;2023-03-23T09:30:56;5.37;;;3.17;;
7817;SDS011;3954;52.624;9.212;2023-03-23T09:33:22;4.40;;;3.10;;
7817;SDS011;3954;52.624;9.212;2023-03-23T09:35:48;3.73;;;3.30;;
7817;SDS011;3954;52.624;9.212;2023-03-23T09:38:14;5.03;;;2.70;;
7817;SDS011;3954;52.624;9.212;2023-03-23T09:40:45;4.90;;;2.53;;
7817;SDS011;3954;52.624;9.212;2023-03-23T09:43:27;3.80;;;2.77;;
7817;SDS011;3954;52.624;9.212;2023-03-23T09:45:57;3.17;;;2.53;;
7817;SDS011;3954;52.624;9.212;2023-03-23T09:48:31;4.77;;;2.70;;
7817;SDS011;3954;52.624;9.212;2023-03-23T09:51:00;4.30;;;2.50;;
7817;SDS011;3954;52.624;9.212;2023-03-23T09:53:27;6.03;;;2.63;;
7817;SDS011;3954;52.624;9.212;2023-03-23T09:56:01;4.10;;;2.70;;
7817;SDS011;3954;52.624;9.212;2023-03-23T09:58:29;5.60;;;2.67;;
7817;SDS011;3954;52.624;9.212;2023-03-23T10:00:57;4.67;;;2.00;;
7817;SDS011;3954;52.624;9.212;2023-03-23T10:03:26;3.07;;;1.80;;
7817;SDS011;3954;52.624;9.212;2023-03-23T10:05:53;2.40;;;1.53;;
7817;SDS011;3954;52.624;9.212;2023-03-23T10:08:20;3.77;;;1.93;;
7817;SDS011;3954;52.624;9.212;2023-03-23T10:10:48;5.87;;;1.80;;
7817;SDS011;3954;52.624;9.212;2023-03-23T10:13:20;3.70;;;1.77;;
7817;SDS011;3954;52.624;9.212;2023-03-23T10:15:48;2.60;;;1.57;;
7817;SDS011;3954;52.624;9.212;2023-03-23T10:18:16;1.80;;;1.47;;
7817;SDS011;3954;52.624;9.212;2023-03-23T10:20:45;4.37;;;1.57;;
7817;SDS011;3954;52.624;9.212;2023-03-23T10:23:20;4.53;;;1.53;;
7817;SDS011;3954;52.624;9.212;2023-03-23T10:25:48;2.37;;;1.30;;
7817;SDS011;3954;52.624;9.212;2023-03-23T10:28:16;1.63;;;1.10;;
7817;SDS011;3954;52.624;9.212;2023-03-23T10:30:45;3.07;;;1.47;;
7817;SDS011;3954;52.624;9.212;2023-03-23T10:33:14;2.43;;;1.20;;
7817;SDS011;3954;52.624;9.212;2023-03-23T10:35:43;3.90;;;1.53;;
7817;SDS011;3954;52.624;9.212;2023-03-23T10:38:11;3.60;;;1.60;;
7817;SDS011;3954;52.624;9.212;2023-03-23T10:40:43;2.20;;;1.60;;
7817;SDS011;3954;52.624;9.212;2023-03-23T10:43:12;3.97;;;1.70;;
7817;SDS011;3954;52.624;9.212;2023-03-23T10:45:38;3.70;;;1.60;;
7817;SDS011;3954;52.624;9.212;2023-03-23T10:48:12;2.73;;;1.80;;
7817;SDS011;3954;52.624;9.212;2023-03-23T10:50:40;3.30;;;1.93;;
7817;SDS011;3954;52.624;9.212;2023-03-23T10:53:11;2.83;;;1.60;;
7817;SDS011;3954;52.624;9.212;2023-03-23T10:55:40;3.10;;;1.60;;
7817;SDS011;3954;52.624;9.212;2023-03-23T10:58:09;3.53;;;1.77;;
7817;SDS011;3954;52.624;9.212;2023-03-23T11:00:40;3.23;;;1.60;;
7817;SDS011;3954;52.624;9.212;2023-03-23T11:03:25;3.67;;;1.70;;
7817;SDS011;3954;52.624;9.212;2023-03-23T11:05:54;2.80;;;1.57;;
7817;SDS011;3954;52.624;9.212;2023-03-23T11:08:22;2.67;;;1.90;;
7817;SDS011;3954;52.624;9.212;2023-03-23T11:10:51;2.13;;;1.60;;
7817;SDS011;3954;52.624;9.212;2023-03-23T11:13:17;3.00;;;1.97;;
7817;SDS011;3954;52.624;9.212;2023-03-23T11:15:45;3.73;;;1.87;;
7817;SDS011;3954;52.624;9.212;2023-03-23T11:18:13;4.60;;;1.90;;
7817;SDS011;3954;52.624;9.212;2023-03-23T11:20:44;3.83;;;1.87;;
7817;SDS011;3954;52.624;9.212;2023-03-23T11:23:19;3.53;;;2.20;;
7817;SDS011;3954;52.624;9.212;2023-03-23T11:25:58;4.30;;;2.07;;
7817;SDS011;3954;52.624;9.212;2023-03-23T11:28:27;3.03;;;1.70;;
7817;SDS011;3954;52.624;9.212;2023-03-23T11:30:53;3.23;;;2.10;;
7817;SDS011;3954;52.624;9.212;2023-03-23T11:33:21;3.27;;;1.63;;
7817;SDS011;3954;52.624;9.212;2023-03-23T11:35:50;3.70;;;1.97;;
7817;SDS011;3954;52.624;9.212;2023-03-23T11:38:18;1.77;;;1.33;;
7817;SDS011;3954;52.624;9.212;2023-03-23T11:40:47;4.07;;;1.50;;
7817;SDS011;3954;52.624;9.212;2023-03-23T11:43:14;2.43;;;1.30;;
7817;SDS011;3954;52.624;9.212;2023-03-23T11:45:47;2.70;;;1.40;;
7817;SDS011;3954;52.624;9.212;2023-03-23T11:48:15;2.47;;;1.80;;
7817;SDS011;3954;52.624;9.212;2023-03-23T11:50:47;1.50;;;1.30;;
7817;SDS011;3954;52.624;9.212;2023-03-23T11:53:15;1.80;;;1.60;;
7817;SDS011;3954;52.624;9.212;2023-03-23T11:55:50;1.90;;;1.40;;
7817;SDS011;3954;52.624;9.212;2023-03-23T11:58:20;1.47;;;1.30;;
7817;SDS011;3954;52.624;9.212;2023-03-23T12:00:48;1.47;;;1.23;;
7817;SDS011;3954;52.624;9.212;2023-03-23T12:03:26;2.77;;;1.40;;
7817;SDS011;3954;52.624;9.212;2023-03-23T12:06:01;2.27;;;1.40;;
7817;SDS011;3954;52.624;9.212;2023-03-23T12:08:47;1.40;;;1.30;;
7817;SDS011;3954;52.624;9.212;2023-03-23T12:11:17;2.73;;;1.57;;
7817;SDS011;3954;52.624;9.212;2023-03-23T12:13:51;1.30;;;1.20;;
7817;SDS011;3954;52.624;9.212;2023-03-23T12:16:22;2.90;;;1.50;;
7817;SDS011;3954;52.624;9.212;2023-03-23T12:18:51;2.30;;;1.80;;
7817;SDS011;3954;52.624;9.212;2023-03-23T12:21:24;2.33;;;1.60;;
7817;SDS011;3954;52.624;9.212;2023-03-23T12:23:54;2.20;;;1.50;;
7817;SDS011;3954;52.624;9.212;2023-03-23T12:26:24;1.70;;;1.50;;
7817;SDS011;3954;52.624;9.212;2023-03-23T12:28:59;2.43;;;1.63;;
7817;SDS011;3954;52.624;9.212;2023-03-23T12:31:29;1.87;;;1.37;;
7817;SDS011;3954;52.624;9.212;2023-03-23T12:33:59;2.70;;;1.70;;
7817;SDS011;3954;52.624;9.212;2023-03-23T12:36:32;1.90;;;1.60;;
7817;SDS011;3954;52.624;9.212;2023-03-23T12:39:05;2.40;;;1.63;;
7817;SDS011;3954;52.624;9.212;2023-03-23T12:41:35;2.90;;;1.63;;
7817;SDS011;3954;52.624;9.212;2023-03-23T12:44:03;2.23;;;1.97;;
7817;SDS011;3954;52.624;9.212;2023-03-23T12:46:44;1.83;;;1.60;;
7817;SDS011;3954;52.624;9.212;2023-03-23T12:49:14;2.90;;;1.70;;
7817;SDS011;3954;52.624;9.212;2023-03-23T12:51:44;3.20;;;1.80;;
7817;SDS011;3954;52.624;9.212;2023-03-23T12:54:12;4.03;;;2.00;;
7817;SDS011;3954;52.624;9.212;2023-03-23T12:56:42;3.97;;;1.87;;
7817;SDS011;3954;52.624;9.212;2023-03-23T12:59:10;3.53;;;2.13;;
7817;SDS011;3954;52.624;9.212;2023-03-23T13:01:40;3.37;;;1.80;;
7817;SDS011;3954;52.624;9.212;2023-03-23T13:04:09;3.13;;;1.43;;
7817;SDS011;3954;52.624;9.212;2023-03-23T13:06:37;2.77;;;1.73;;
7817;SDS011;3954;52.624;9.212;2023-03-23T13:09:05;1.67;;;1.30;;
7817;SDS011;3954;52.624;9.212;2023-03-23T13:11:34;1.50;;;1.10;;
7817;SDS011;3954;52.624;9.212;2023-03-23T13:14:03;3.97;;;1.40;;
7817;SDS011;3954;52.624;9.212;2023-03-23T13:16:34;1.93;;;1.27;;
7817;SDS011;3954;52.624;9.212;2023-03-23T13:19:08;2.47;;;1.20;;
7817;SDS011;3954;52.624;9.212;2023-03-23T13:21:38;2.93;;;1.40;;
7817;SDS011;3954;52.624;9.212;2023-03-23T13:24:10;2.57;;;1.20;;
7817;SDS011;3954;52.624;9.212;2023-03-23T13:26:38;1.33;;;1.17;;
7817;SDS011;3954;52.624;9.212;2023-03-23T13:29:06;1.43;;;1.10;;
7817;SDS011;3954;52.624;9.212;2023-03-23T13:31:34;2.30;;;1.03;;
7817;SDS011;3954;52.624;9.212;2023-03-23T13:34:02;2.07;;;1.30;;
7817;SDS011;3954;52.624;9.212;2023-03-23T13:36:30;2.53;;;1.40;;
7817;SDS011;3954;52.624;9.212;2023-03-23T13:38:57;2.53;;;1.03;;
7817;SDS011;3954;52.624;9.212;2023-03-23T13:41:25;1.83;;;1.27;;
7817;SDS011;3954;52.624;9.212;2023-03-23T13:43:52;2.43;;;1.20;;
7817;SDS011;3954;52.624;9.212;2023-03-23T13:46:25;2.03;;;1.20;;
7817;SDS011;3954;52.624;9.212;2023-03-23T13:49:03;2.13;;;1.37;;
7817;SDS011;3954;52.624;9.212;2023-03-23T13:51:33;2.47;;;1.50;;
7817;SDS011;3954;52.624;9.212;2023-03-23T13:56:52;2.53;;;1.33;;
7817;SDS011;3954;52.624;9.212;2023-03-23T13:59:28;3.00;;;1.30;;
7817;SDS011;3954;52.624;9.212;2023-03-23T14:01:55;1.57;;;1.20;;
7817;SDS011;3954;52.624;9.212;2023-03-23T14:04:22;3.07;;;1.20;;
7817;SDS011;3954;52.624;9.212;2023-03-23T14:06:50;2.13;;;1.10;;
7817;SDS011;3954;52.624;9.212;2023-03-23T14:09:22;1.80;;;1.00;;
7817;SDS011;3954;52.624;9.212;2023-03-23T14:11:54;2.33;;;1.07;;
7817;SDS011;3954;52.624;9.212;2023-03-23T14:14:23;4.03;;;1.50;;
7817;SDS011;3954;52.624;9.212;2023-03-23T14:16:51;1.93;;;1.77;;
7817;SDS011;3954;52.624;9.212;2023-03-23T14:19:18;2.17;;;1.70;;
7817;SDS011;3954;52.624;9.212;2023-03-23T14:21:52;1.50;;;1.20;;
7817;SDS011;3954;52.624;9.212;2023-03-23T14:24:20;1.83;;;1.23;;
7817;SDS011;3954;52.624;9.212;2023-03-23T14:26:47;3.53;;;1.80;;
7817;SDS011;3954;52.624;9.212;2023-03-23T14:29:18;1.70;;;1.40;;
7817;SDS011;3954;52.624;9.212;2023-03-23T14:31:47;4.27;;;1.43;;
7817;SDS011;3954;52.624;9.212;2023-03-23T14:34:15;2.27;;;1.13;;
7817;SDS011;3954;52.624;9.212;2023-03-23T14:36:42;2.63;;;1.43;;
7817;SDS011;3954;52.624;9.212;2023-03-23T14:39:13;2.33;;;1.40;;
7817;SDS011;3954;52.624;9.212;2023-03-23T14:41:40;2.27;;;1.30;;
7817;SDS011;3954;52.624;9.212;2023-03-23T14:44:10;3.03;;;1.53;;
7817;SDS011;3954;52.624;9.212;2023-03-23T14:46:39;1.93;;;1.10;;
7817;SDS011;3954;52.624;9.212;2023-03-23T14:49:07;3.90;;;1.40;;
7817;SDS011;3954;52.624;9.212;2023-03-23T14:51:33;2.33;;;1.20;;
7817;SDS011;3954;52.624;9.212;2023-03-23T14:53:59;2.43;;;1.40;;
7817;SDS011;3954;52.624;9.212;2023-03-23T14:56:31;1.97;;;1.40;;
7817;SDS011;3954;52.624;9.212;2023-03-23T14:59:02;2.43;;;1.60;;
7817;SDS011;3954;52.624;9.212;2023-03-23T15:01:29;2.03;;;1.40;;
7817;SDS011;3954;52.624;9.212;2023-03-23T15:03:59;2.20;;;1.33;;
7817;SDS011;3954;52.624;9.212;2023-03-23T15:06:26;2.97;;;1.50;;
7817;SDS011;3954;52.624;9.212;2023-03-23T15:08:53;2.43;;;1.60;;
7817;SDS011;3954;52.624;9.212;2023-03-23T15:11:22;1.73;;;1.20;;
7817;SDS011;3954;52.624;9.212;2023-03-23T15:13:58;2.10;;;1.33;;
7817;SDS011;3954;52.624;9.212;2023-03-23T15:16:28;2.53;;;1.20;;
7817;SDS011;3954;52.624;9.212;2023-03-23T15:18:56;1.70;;;1.40;;
7817;SDS011;3954;52.624;9.212;2023-03-23T15:21:26;3.20;;;1.50;;
7817;SDS011;3954;52.624;9.212;2023-03-23T15:23:53;3.00;;;1.60;;
7817;SDS011;3954;52.624;9.212;2023-03-23T15:26:27;1.43;;;1.13;;